Bavaria

Go HERE for most recent data if this page is not up to date.

Jump to table bottom
Date Time Temp F RH % AVG Wind Max Wind Wind Dir 24 Snow Depth
04/24 13:00 52.8 21 2 6 W - 287 -0.4 49.4
04/24 12:00 51.6 19 2 5 SW - 237 -0.4 49.9
04/24 11:00 50.3 18 2 4 W - 279 -0.3 50.3
04/24 10:00 48.0 20 1 4 SE - 143 -0.1 51.4
04/24 09:00 41.8 25 1 6 W - 276 0.2 51.7
04/24 08:00 37.2 30 2 6 W - 254 0.2 51.4
04/24 07:00 34.6 34 1 5 W - 266 0.2 51.4
04/24 06:00 34.0 35 2 5 E - 80 0.1 51.5
04/24 05:00 33.8 36 2 5 NW - 294 0.2 51.6
04/24 04:00 34.1 36 2 5 W - 292 0.1 51.6
04/24 03:00 35.5 33 2 5 NW - 296 0.2 51.6
04/24 02:00 35.4 32 3 4 W - 288 0.2 51.8
04/24 01:00 34.2 36 2 5 NW - 326 0.2 51.6
04/24 00:00 34.8 34 2 4 NW - 304 0.2 51.5
04/23 23:00 34.1 36 1 4 NW - 300 0.2 51.6
04/23 22:00 34.2 36 1 4 W - 270 0.1 51.6
04/23 21:00 35.5 30 2 5 NW - 311 0.1 51.5
04/23 20:00 36.9 27 4 7 NW - 300 0.0 51.3
04/23 19:00 39.9 23 2 7 SW - 243 -0.0 51.2
04/23 18:00 43.9 21 2 5 W - 271 -0.0 51.2
04/23 17:00 44.9 21 2 6 W - 253 -0.1 51.0
04/23 16:00 45.0 21 2 5 SW - 209 -0.4 50.5
04/23 15:00 43.8 18 2 5 SW - 225 -0.4 50.6
04/23 14:00 42.8 22 1 4 SW - 232 -0.5 50.6
04/23 13:00 41.2 22 2 6 W - 249 -0.5 50.9
04/23 12:00 42.1 21 2 6 S - 171 -0.4 51.2
04/23 11:00 38.6 26 2 5 SE - 130 -0.3 51.7
04/23 10:00 34.2 29 1 5 E - 103 -0.2 52.4
04/23 09:00 32.5 29 0 3 SE - 129 0.2 52.6
04/23 08:00 23.0 39 2 3 NE - 54 0.2 52.3
04/23 07:00 20.6 42 2 3 NE - 59 0.2 52.3
04/23 06:00 21.1 40 2 3 NE - 45 0.2 52.3
04/23 05:00 19.9 44 2 3 NE - 24 0.2 52.4
04/23 04:00 21.7 37 2 4 NE - 42 0.2 52.4
04/23 03:00 20.3 40 2 3 NE - 64 0.1 52.2
04/23 02:00 21.5 39 1 3 NE - 50 0.1 52.2
04/23 01:00 22.7 38 2 4 N - 15 0.2 52.2
04/23 00:00 23.8 37 2 5 E - 87 0.2 52.3
.